Aktualne dane pomiarowe

Uwaga, wersja testowa! Automatyczne pobieranie danych za pomocą narzędzi lub skryptów to umożliwiających jest zabronione.

Dane meteo z obszaru Polski uzyskane na podstawie depesz SYNOP pobieranych co godzinę z NWS. Najedź myszką na symbol przedstawiony w tabeli, aby uzyskać informacje co do jego znaczenia. Prosimy pamiętać, że to testowa wersja strony, która jeszcze nie jest ukończona. Stworzono również jest krótki FAQ dotyczący korzystania z tej podstrony Anomalie temperatury w chwili obecnej odniesione są do okresu referencyjnego 1951-2016. Okres ten będzie później zmieniony na 1981-2010. Kliknij ikonę aby pobrać plik CSV. Kliknij ikonę aby wygenerować mapę synoptyczną dla danego terminu.

Wybierz Datę:    

        

Włodawa (12497)

Dane terminowe dla wybranej stacji. Kliknij datę, aby otrzymać dane z tego terminu dla wszystkich stacji.

TemperaturaZachmurzenieWiatrCiśnienieOpadyPogoda
 Data t td wb tx tn tg rh  Nt Nl Cl Cm Ch ws wd g1 g2 wx mslp ppp ch 24h 12h t ww ww w1 w2  
2019-05-10 23:00:00 9.4 8.9 9.0--- 970.8wxwxwx1wx--11010.7 989.2 0.0---wx-w1--
2019-05-10 22:00:00 9.5 8.9 9.0--- 961.5wxwxwx0---01010.7 989.2 0.1---wx---
2019-05-10 21:00:00 10.4 9.8 9.9--- 962.0wxwxwx0---01010.5 989.0 0.1---wx---
2019-05-10 20:00:00 10.7 9.9 10.1--- 953.0wxwxwx0---01010.6 989.2 0.6---wx---
2019-05-10 19:00:00 11.2 10.1 10.4--- 936.0wxwxwxwx0---01010.5 989.1 0.6---wx---
2019-05-10 18:00:00 11.7 9.9 10.5 13.7 10.2- 898.0wxwxwx1wx--11010.3 988.9 0.6- 4.012wx-w1--
2019-05-10 17:00:00 12.0 10.2 10.8--- 898.0wxwxwx1wx---1009.9 988.6 0.5---wx-w1w2--
2019-05-10 16:00:00 12.0 9.9 10.6--- 8720.0wxwxwx1wx--11009.8 988.5 0.7---wx-w1--
2019-05-10 15:00:00 11.8 10.4 10.8--- 9118.0wxwxwx1wx--11009.6 988.3 0.8---wx-w1--
2019-05-10 14:00:00 12.7 9.5 10.6--- 8120.0wxwxwx1wx--11009.4 988.1 0.8---wx-w1--
2019-05-10 13:00:00 11.2 8.8 9.6--- 858.0wxwxwx5wx--51009.2 987.8 0.8---wx-w1--
2019-05-10 12:00:00 12.2 9.6 10.5--- 8420.0wxwxwx4wx--41008.8 987.5 0.7- 0.36wx-w1w2--
2019-05-10 11:00:00 11.9 9.1 10.1--- 8315.0wxwxwx6wx--61008.6 987.3 1.0---wx-w1w2--
2019-05-10 10:00:00 12.6 8.5 10.0--- 7620.0wxwxwx3wx---1008.2 987.0 1.1---wx-w1--
2019-05-10 09:00:00 11.8 8.3 9.6--- 7920.0wxwxwx3wx--31008.1 986.8 1.1---wx-w1w2--
2019-05-10 08:00:00 11.0 8.0 9.1--- 8220.0wxwxwx2wx--21007.7 986.3 0.9---wx-w1--
2019-05-10 07:00:00 10.8 8.6 9.3--- 8620.0wxwxwx2wx--21007.3 985.9 0.8---wx-w1--
2019-05-10 06:00:00 10.2 8.0 8.7 13.8 8.0 6 8615.0wxwxwxwx3wx--31007.1 985.7 1.0--12wx-- 14.1
2019-05-10 05:00:00 9.9 7.5 8.3--- 8518.0wxwxwxwx2wx--21006.8 985.4 1.1---wx-w1--
2019-05-10 04:00:00 9.3 5.8 7.1--- 7920.0wxwxwxwx1wx--11006.6 985.1 0.8---wx---
2019-05-10 03:00:00 8.6 5.5 6.7--- 8120.0wxwxwxwx0---01006.2 984.7 0.4---------
2019-05-10 02:00:00 8.3 5.9 6.8--- 8520.0wxwxwx2wx--21005.8 984.3 0.1---------
2019-05-10 01:00:00 8.3 4.7 6.1--- 7820.0wx-wxwx1wx--11005.8 984.3 -0.2---------
2019-05-10 00:00:00 8.8 4.2 6.1--- 7320.0wxwxwx1wx--11005.8 984.3 -0.2- 0.06------
2019-05-09 23:00:00 9.2 4.4 6.4--- 7220.0wxwxwxwx1wx--11005.6 984.2 -0.4---------
2019-05-09 22:00:00 10.2 3.2 6.4--- 6220.0wxwxwxwx2wx--21005.9 984.5 -0.3---------
2019-05-09 21:00:00 11.6 2.9 7.0--- 5520.0wxwxwx3wx--31005.8 984.5 -0.1---------
2019-05-09 20:00:00 12.0 2.4 7.0--- 5220.0wxwxwx3wx--31005.8 984.6 -0.1---------
2019-05-09 19:00:00 12.3 1.6 6.9--- 4820.0wx-wxwx2wx--21006.0 984.8 0.1---------
2019-05-09 18:00:00 13.8 1.1 7.5 17.4 9.8- 4220.0wx-wxwx3wx-931005.7 984.6 -0.4- 0.012------
2019-05-09 17:00:00 15.3 0.7 8.1--- 3720.0wx-wx3wx--31005.7 984.7 -0.7---------
2019-05-09 16:00:00 16.1 0.2 8.4--- 3420.0wxwxwxwx5wx---1005.6 984.7 -1.2---------
2019-05-09 15:00:00 16.7 -0.1 8.6--- 3220.0wxwxwxwx5wx-951005.9 985.0 -1.7---------
2019-05-09 14:00:00 16.6 -0.2 8.5--- 3220.0wxwxwxwx5wx-951006.3 985.4 -1.9---------
2019-05-09 13:00:00 16.7 -0.1 8.6--- 3220.0wxwxwxwx5wx--51006.8 985.9 -2.0---------
2019-05-09 12:00:00 16.4 0.1 8.5--- 3320.0wxwxwxwx4wx-1241007.7 986.7 -1.9- 0.06------
2019-05-09 11:00:00 15.9 0.0 8.2--- 3420.0wxwxwxwx5wx-1051008.3 987.3 -1.8---------
2019-05-09 10:00:00 15.2 -1.0 7.6--- 3320.0wxwxwxwx5wx-1151009.0 987.9 -1.7---------
2019-05-09 09:00:00 14.6 -0.7 7.3--- 3520.0wx-wx5wx-1151009.7 988.6 -1.6---------
2019-05-09 08:00:00 13.5 -1.7 6.5--- 3520.0wx-wx6wx--61010.3 989.1 -1.2---------
2019-05-09 07:00:00 11.9 -2.4 5.4--- 3720.0wx-wx6wx111161011.0 989.6 -1.0---------
2019-05-09 06:00:00 9.8 0.4 5.1 10.5 0.7 -2 5220.0wx-wx4wx--41011.7 990.2 -0.7- 0.012----- 13.0
2019-05-09 05:00:00 7.0 0.0 3.4--- 6120.0wx-4wx--41012.1 990.3 -1.0---------
2019-05-09 04:00:00 4.5 -0.7 1.8--- 6920.0wx-3wx--31012.6 990.6 -1.1---------
2019-05-09 03:00:00 1.5 -0.9 0.1--- 8420.0wx-2wx--21013.1 990.9 -1.2---------
2019-05-09 02:00:00 1.6 -1.0 0.1--- 8320.0wx-2wx--21013.5 991.3 -1.2---------
2019-05-09 01:00:00 1.5 -0.4 0.3--- 8720.0wx-2wx--21013.9 991.7 -0.8---------
2019-05-09 00:00:00 3.1 -0.7 1.0--- 7620.0wx-2wx--21014.2 992.1 -0.7- 0.06------
4.8 ms

 

Print Friendly, PDF & Email